Time;durP1;ratioP1;P1;durP2;ratioP2;P2;SDS_P1;SDS_P2;PMS_P1;PMS_P2;Temp;Humidity;BMP_temperature;BMP_pressure;BME280_temperature;BME280_humidity;BME280_pressure;Samples;Min_cycle;Max_cycle;Signal;HPM_P1;HPM_P2
2023/11/12 00:00:47;;;;;;;6.03;5.43;;;;;;;;;;5069079;28;20287;-56
2023/11/12 00:03:13;;;;;;;6.13;5.53;;;;;;;;;;5068270;28;20259;-56
2023/11/12 00:05:39;;;;;;;5.73;4.80;;;;;;;;;;5069006;28;20216;-56
2023/11/12 00:08:05;;;;;;;6.03;5.43;;;;;;;;;;5069433;28;20238;-57
2023/11/12 00:10:32;;;;;;;5.60;5.00;;;;;;;;;;5068611;28;20676;-57
2023/11/12 00:12:59;;;;;;;5.13;4.70;;;;;;;;;;5067803;28;20176;-56
2023/11/12 00:15:26;;;;;;;5.27;4.77;;;;;;;;;;5069482;28;20237;-55
2023/11/12 00:17:52;;;;;;;6.00;4.60;;;;;;;;;;5069202;28;20200;-55
2023/11/12 00:20:18;;;;;;;5.13;4.60;;;;;;;;;;5067465;28;20180;-55
2023/11/12 00:22:44;;;;;;;6.03;5.17;;;;;;;;;;5069698;28;20311;-55
2023/11/12 00:25:12;;;;;;;5.20;4.70;;;;;;;;;;5069705;28;20290;-55
2023/11/12 00:27:38;;;;;;;5.53;5.03;;;;;;;;;;5066997;28;20219;-55
2023/11/12 00:30:04;;;;;;;6.97;5.07;;;;;;;;;;5067920;28;20533;-55
2023/11/12 00:32:32;;;;;;;5.07;4.37;;;;;;;;;;5067488;28;20779;-55
2023/11/12 00:34:58;;;;;;;5.53;4.87;;;;;;;;;;5067569;28;20208;-55
2023/11/12 00:37:24;;;;;;;5.40;4.90;;;;;;;;;;5067533;28;20196;-55
2023/11/12 00:39:50;;;;;;;5.37;4.27;;;;;;;;;;5065241;28;20493;-55
2023/11/12 00:42:17;;;;;;;4.77;4.27;;;;;;;;;;5065805;28;20643;-55
2023/11/12 00:44:43;;;;;;;5.77;5.23;;;;;;;;;;5065340;28;20225;-55
2023/11/12 00:47:09;;;;;;;5.10;4.60;;;;;;;;;;5068890;28;20185;-55
2023/11/12 00:49:35;;;;;;;5.53;5.00;;;;;;;;;;5059455;28;20640;-55
2023/11/12 00:52:01;;;;;;;5.20;4.77;;;;;;;;;;5068936;28;20184;-55
2023/11/12 00:54:27;;;;;;;5.40;4.90;;;;;;;;;;5048660;28;20188;-55
2023/11/12 00:56:53;;;;;;;5.27;4.77;;;;;;;;;;5068205;28;20173;-55
2023/11/12 00:59:20;;;;;;;5.03;4.50;;;;;;;;;;5066705;28;20216;-55
2023/11/12 01:01:46;;;;;;;5.30;4.80;;;;;;;;;;5048988;28;20231;-55
2023/11/12 01:04:12;;;;;;;7.40;5.27;;;;;;;;;;5067917;28;20188;-55
2023/11/12 01:06:38;;;;;;;5.60;5.10;;;;;;;;;;5067883;28;20579;-55
2023/11/12 01:09:04;;;;;;;6.97;5.47;;;;;;;;;;5067741;28;20531;-55
2023/11/12 01:11:30;;;;;;;6.37;5.50;;;;;;;;;;5066775;28;20682;-55
2023/11/12 01:13:56;;;;;;;7.37;5.40;;;;;;;;;;5067199;28;20188;-55
2023/11/12 01:16:22;;;;;;;6.13;5.53;;;;;;;;;;5066898;28;20291;-55
2023/11/12 01:18:48;;;;;;;8.17;6.10;;;;;;;;;;5066968;28;20302;-55
2023/11/12 01:21:14;;;;;;;7.17;5.57;;;;;;;;;;5066691;28;20505;-55
2023/11/12 01:23:41;;;;;;;6.33;5.73;;;;;;;;;;5067393;28;20219;-54
2023/11/12 01:26:07;;;;;;;7.17;6.47;;;;;;;;;;5067416;28;20640;-55
2023/11/12 01:28:34;;;;;;;6.50;5.90;;;;;;;;;;5066909;28;20191;-55
2023/11/12 01:31:00;;;;;;;6.27;5.47;;;;;;;;;;5066289;28;20224;-54
2023/11/12 01:33:28;;;;;;;7.30;6.00;;;;;;;;;;5049173;28;20195;-54
2023/11/12 01:35:54;;;;;;;7.43;6.37;;;;;;;;;;5067260;28;20180;-54
2023/11/12 01:38:20;;;;;;;10.10;6.73;;;;;;;;;;5069265;28;20593;-54
2023/11/12 01:40:47;;;;;;;8.03;7.27;;;;;;;;;;5073014;28;20190;-54
2023/11/12 01:43:15;;;;;;;9.27;7.13;;;;;;;;;;5074529;28;20180;-54
2023/11/12 01:45:42;;;;;;;7.87;7.10;;;;;;;;;;5073390;28;20267;-54
2023/11/12 01:48:08;;;;;;;7.47;6.73;;;;;;;;;;5073954;28;20180;-54
2023/11/12 01:50:36;;;;;;;7.90;6.93;;;;;;;;;;5054687;28;20610;-54
2023/11/12 01:53:03;;;;;;;7.73;5.90;;;;;;;;;;5072740;28;20600;-54
2023/11/12 01:55:30;;;;;;;8.17;7.27;;;;;;;;;;5071091;28;20192;-54
2023/11/12 01:57:58;;;;;;;8.07;6.53;;;;;;;;;;5069195;28;20262;-54
2023/11/12 02:00:25;;;;;;;6.60;6.00;;;;;;;;;;5072885;28;20238;-55
2023/11/12 02:02:52;;;;;;;6.97;5.90;;;;;;;;;;5072946;28;20669;-54
2023/11/12 02:05:19;;;;;;;6.97;6.27;;;;;;;;;;5073768;28;20226;-55
2023/11/12 02:07:47;;;;;;;7.43;6.03;;;;;;;;;;5073087;28;20204;-54
2023/11/12 02:10:15;;;;;;;7.70;6.53;;;;;;;;;;5073131;28;20176;-54
2023/11/12 02:12:44;;;;;;;7.30;6.57;;;;;;;;;;5073798;28;20183;-54
2023/11/12 02:15:14;;;;;;;7.10;6.30;;;;;;;;;;5073308;28;20180;-54
2023/11/12 02:17:40;;;;;;;6.77;6.10;;;;;;;;;;5072614;28;20251;-54
2023/11/12 02:20:25;;;;;;;6.50;5.90;;;;;;;;;;5069531;28;20650;-54
2023/11/12 02:22:51;;;;;;;6.37;5.77;;;;;;;;;;5072581;28;20628;-55
2023/11/12 02:25:17;;;;;;;6.50;5.83;;;;;;;;;;5072454;28;20183;-54
2023/11/12 02:27:44;;;;;;;7.27;5.63;;;;;;;;;;5072408;28;20184;-54
2023/11/12 02:30:11;;;;;;;7.03;6.30;;;;;;;;;;5072134;28;20567;-55
2023/11/12 02:32:37;;;;;;;7.53;6.43;;;;;;;;;;5069760;28;20240;-55
2023/11/12 02:35:04;;;;;;;7.20;6.50;;;;;;;;;;5072022;28;20333;-57
2023/11/12 02:37:30;;;;;;;6.40;5.70;;;;;;;;;;5072679;28;20216;-57
2023/11/12 02:39:56;;;;;;;8.07;6.30;;;;;;;;;;5072709;28;20215;-57
2023/11/12 02:42:22;;;;;;;7.53;6.30;;;;;;;;;;5073685;28;20532;-56
2023/11/12 02:44:49;;;;;;;6.73;6.13;;;;;;;;;;5070704;28;20210;-56
2023/11/12 02:47:15;;;;;;;6.90;6.20;;;;;;;;;;5073592;28;20173;-56
2023/11/12 02:49:51;;;;;;;6.20;5.60;;;;;;;;;;5069102;28;20261;-56
2023/11/12 02:52:17;;;;;;;6.70;6.10;;;;;;;;;;5069036;28;20176;-56
2023/11/12 02:54:43;;;;;;;7.10;6.40;;;;;;;;;;5069642;28;20184;-57
2023/11/12 02:57:10;;;;;;;6.80;6.20;;;;;;;;;;5062897;28;20641;-56
2023/11/12 02:59:36;;;;;;;7.27;6.57;;;;;;;;;;5068958;28;20212;-56
2023/11/12 03:02:02;;;;;;;6.50;5.90;;;;;;;;;;5070067;28;20192;-56
2023/11/12 03:04:28;;;;;;;6.93;6.23;;;;;;;;;;5070071;28;20290;-56
2023/11/12 03:06:54;;;;;;;7.17;6.47;;;;;;;;;;5069601;28;20261;-55
2023/11/12 03:09:20;;;;;;;6.73;5.80;;;;;;;;;;5070471;28;20188;-56
2023/11/12 03:11:46;;;;;;;7.13;6.43;;;;;;;;;;5070530;28;20659;-56
2023/11/12 03:14:12;;;;;;;7.83;7.03;;;;;;;;;;5067566;28;20188;-56
2023/11/12 03:16:38;;;;;;;7.10;6.10;;;;;;;;;;5069756;28;20208;-56
2023/11/12 03:19:05;;;;;;;6.30;5.70;;;;;;;;;;5067162;28;20197;-56
2023/11/12 03:21:31;;;;;;;8.60;5.87;;;;;;;;;;5069801;28;20192;-57
2023/11/12 03:23:57;;;;;;;6.43;5.70;;;;;;;;;;5069205;28;20177;-56
2023/11/12 03:26:23;;;;;;;6.87;6.13;;;;;;;;;;5070044;28;20188;-57
2023/11/12 03:28:49;;;;;;;10.43;6.33;;;;;;;;;;5069510;28;20949;-56
2023/11/12 03:31:15;;;;;;;6.80;6.17;;;;;;;;;;5063625;28;20311;-56
2023/11/12 03:33:41;;;;;;;7.27;5.37;;;;;;;;;;5066704;28;20188;-56
2023/11/12 03:36:07;;;;;;;6.67;5.97;;;;;;;;;;5068842;28;20257;-57
2023/11/12 03:38:33;;;;;;;10.00;5.97;;;;;;;;;;5068704;28;20212;-56
2023/11/12 03:40:59;;;;;;;6.70;6.10;;;;;;;;;;5067280;28;20580;-57
2023/11/12 03:43:25;;;;;;;6.57;5.60;;;;;;;;;;5070036;28;20644;-56
2023/11/12 03:45:51;;;;;;;8.90;6.10;;;;;;;;;;5068755;28;20172;-55
2023/11/12 03:48:18;;;;;;;6.33;5.73;;;;;;;;;;5068867;28;20185;-54
2023/11/12 03:50:44;;;;;;;7.43;6.27;;;;;;;;;;5067604;28;20253;-55
2023/11/12 03:53:10;;;;;;;6.90;6.00;;;;;;;;;;5066984;28;20214;-55
2023/11/12 03:55:36;;;;;;;7.40;6.70;;;;;;;;;;5068187;28;20192;-55
2023/11/12 03:58:02;;;;;;;8.03;6.57;;;;;;;;;;5063666;28;21621;-55
2023/11/12 04:00:28;;;;;;;7.70;6.90;;;;;;;;;;5068333;28;20216;-55
2023/11/12 04:02:54;;;;;;;6.63;6.03;;;;;;;;;;5067311;28;20188;-55
2023/11/12 04:05:20;;;;;;;7.53;6.03;;;;;;;;;;5068001;28;20187;-55
2023/11/12 04:07:46;;;;;;;7.33;6.57;;;;;;;;;;5067790;28;20209;-55
2023/11/12 04:10:13;;;;;;;7.70;6.90;;;;;;;;;;5067847;28;20601;-55
2023/11/12 04:12:39;;;;;;;7.07;6.37;;;;;;;;;;5067957;28;20180;-55
2023/11/12 04:15:07;;;;;;;7.23;6.17;;;;;;;;;;5067829;28;20200;-54
2023/11/12 04:17:33;;;;;;;6.97;6.07;;;;;;;;;;5065675;28;20199;-55
2023/11/12 04:20:00;;;;;;;9.70;6.70;;;;;;;;;;5067419;28;20636;-55
2023/11/12 04:22:26;;;;;;;8.00;7.13;;;;;;;;;;5069045;28;20177;-55
2023/11/12 04:24:53;;;;;;;7.60;6.90;;;;;;;;;;5062576;28;20192;-55
2023/11/12 04:27:20;;;;;;;7.17;6.47;;;;;;;;;;5067094;28;20184;-55
2023/11/12 04:29:47;;;;;;;7.50;6.67;;;;;;;;;;5067478;28;20184;-55
2023/11/12 04:32:13;;;;;;;7.80;6.57;;;;;;;;;;5067471;28;20220;-55
2023/11/12 04:34:39;;;;;;;7.33;6.63;;;;;;;;;;5067086;28;20604;-55
2023/11/12 04:37:05;;;;;;;7.07;6.33;;;;;;;;;;5068381;28;20211;-55
2023/11/12 04:39:32;;;;;;;8.80;6.63;;;;;;;;;;5068490;28;20657;-55
2023/11/12 04:41:58;;;;;;;7.13;6.53;;;;;;;;;;5068663;28;20184;-55
2023/11/12 04:44:25;;;;;;;7.27;6.57;;;;;;;;;;5067336;28;20518;-55
2023/11/12 04:46:51;;;;;;;8.37;7.10;;;;;;;;;;5068234;28;20260;-54
2023/11/12 04:49:17;;;;;;;7.67;6.87;;;;;;;;;;5065024;28;20889;-55
2023/11/12 04:51:44;;;;;;;6.73;6.07;;;;;;;;;;5066151;28;20184;-55
2023/11/12 04:54:10;;;;;;;8.00;6.63;;;;;;;;;;5067836;28;20244;-55
2023/11/12 04:56:36;;;;;;;8.37;5.73;;;;;;;;;;5068179;28;20191;-55
2023/11/12 04:59:02;;;;;;;7.40;6.33;;;;;;;;;;5067444;28;20539;-54
2023/11/12 05:01:28;;;;;;;6.53;5.83;;;;;;;;;;5049521;28;20187;-54
2023/11/12 05:03:54;;;;;;;7.10;6.40;;;;;;;;;;5066816;28;20379;-54
2023/11/12 05:06:24;;;;;;;6.97;6.20;;;;;;;;;;5067777;28;20199;-54
2023/11/12 05:08:50;;;;;;;7.10;6.33;;;;;;;;;;5067319;28;20675;-55
2023/11/12 05:11:16;;;;;;;7.57;6.40;;;;;;;;;;5067994;28;20195;-54
2023/11/12 05:13:42;;;;;;;7.97;6.33;;;;;;;;;;5067513;28;20188;-55
2023/11/12 05:16:08;;;;;;;6.73;5.77;;;;;;;;;;5066917;28;20185;-54
2023/11/12 05:18:34;;;;;;;6.23;5.63;;;;;;;;;;5068062;28;20706;-54
2023/11/12 05:21:00;;;;;;;6.57;5.97;;;;;;;;;;5067400;28;20207;-55
2023/11/12 05:23:26;;;;;;;6.97;5.93;;;;;;;;;;5068109;28;20212;-54
2023/11/12 05:25:54;;;;;;;7.93;6.27;;;;;;;;;;5066092;28;20679;-54
2023/11/12 05:28:20;;;;;;;7.93;5.53;;;;;;;;;;5066533;28;20189;-55
2023/11/12 05:30:46;;;;;;;9.27;6.30;;;;;;;;;;5065555;28;20246;-55
2023/11/12 05:33:12;;;;;;;6.57;5.97;;;;;;;;;;5067057;28;20241;-55
2023/11/12 05:35:38;;;;;;;10.80;6.20;;;;;;;;;;5066530;28;20184;-55
2023/11/12 05:38:05;;;;;;;5.90;5.40;;;;;;;;;;5068437;28;20658;-55
2023/11/12 05:40:31;;;;;;;6.50;5.83;;;;;;;;;;5066176;28;20182;-55
2023/11/12 05:42:57;;;;;;;6.07;5.43;;;;;;;;;;5067265;28;20639;-55
2023/11/12 05:45:23;;;;;;;6.37;5.77;;;;;;;;;;5067386;28;20169;-55
2023/11/12 05:47:49;;;;;;;7.03;5.50;;;;;;;;;;5067944;28;20267;-55
2023/11/12 05:50:15;;;;;;;6.03;5.23;;;;;;;;;;5066597;28;20580;-55
2023/11/12 05:52:42;;;;;;;6.23;5.63;;;;;;;;;;5066751;28;20199;-55
2023/11/12 05:55:09;;;;;;;6.33;5.63;;;;;;;;;;5067122;28;20180;-55
2023/11/12 05:57:35;;;;;;;6.10;5.40;;;;;;;;;;5067906;28;20188;-55
2023/11/12 06:00:01;;;;;;;5.93;5.43;;;;;;;;;;5067062;28;20176;-55
2023/11/12 06:02:27;;;;;;;6.13;5.53;;;;;;;;;;5067809;28;20741;-55
2023/11/12 06:04:53;;;;;;;6.67;5.60;;;;;;;;;;5063042;28;20583;-55
2023/11/12 06:07:19;;;;;;;5.77;5.27;;;;;;;;;;5066539;28;20184;-56
2023/11/12 06:09:46;;;;;;;5.40;4.90;;;;;;;;;;5066895;28;20184;-56
2023/11/12 06:12:12;;;;;;;6.03;5.47;;;;;;;;;;5067873;28;20189;-56
2023/11/12 06:14:38;;;;;;;6.87;5.47;;;;;;;;;;5066836;28;20184;-56
2023/11/12 06:17:04;;;;;;;6.77;5.60;;;;;;;;;;5067160;28;20625;-57
2023/11/12 06:19:30;;;;;;;5.73;5.13;;;;;;;;;;5065381;28;20236;-57
2023/11/12 06:21:56;;;;;;;7.37;5.77;;;;;;;;;;5065579;28;20242;-56
2023/11/12 06:24:22;;;;;;;5.80;4.93;;;;;;;;;;5067023;28;20544;-56
2023/11/12 06:26:48;;;;;;;5.83;5.20;;;;;;;;;;5052273;28;20177;-56
2023/11/12 06:29:14;;;;;;;6.03;5.53;;;;;;;;;;5069911;28;20189;-56
2023/11/12 06:31:40;;;;;;;5.53;5.00;;;;;;;;;;5069576;28;20285;-56
2023/11/12 06:34:06;;;;;;;5.70;5.20;;;;;;;;;;5069575;28;20536;-56
2023/11/12 06:36:32;;;;;;;6.73;6.13;;;;;;;;;;5071049;28;20177;-56
2023/11/12 06:38:58;;;;;;;8.50;5.60;;;;;;;;;;5068983;28;20244;-56
2023/11/12 06:41:24;;;;;;;5.57;5.07;;;;;;;;;;5064821;28;20177;-56
2023/11/12 06:43:51;;;;;;;6.73;5.17;;;;;;;;;;5067396;28;20184;-55
2023/11/12 06:46:17;;;;;;;6.33;5.20;;;;;;;;;;5068789;28;20547;-60
2023/11/12 06:48:43;;;;;;;6.77;5.80;;;;;;;;;;5069810;28;20190;-55
2023/11/12 06:51:09;;;;;;;6.50;5.87;;;;;;;;;;5070072;28;20195;-55
2023/11/12 06:53:35;;;;;;;6.00;5.40;;;;;;;;;;5069829;28;20195;-55
2023/11/12 06:56:01;;;;;;;6.53;5.63;;;;;;;;;;5066369;28;20181;-55
2023/11/12 06:58:28;;;;;;;6.60;5.90;;;;;;;;;;5069240;28;20274;-56
2023/11/12 07:00:54;;;;;;;7.07;5.43;;;;;;;;;;5063639;28;20274;-55
2023/11/12 07:03:20;;;;;;;5.57;5.03;;;;;;;;;;5068317;28;20183;-55
2023/11/12 07:05:47;;;;;;;5.80;5.30;;;;;;;;;;5069456;28;20627;-56
2023/11/12 07:08:13;;;;;;;5.70;5.07;;;;;;;;;;5067423;28;20188;-55
2023/11/12 07:10:40;;;;;;;5.10;4.70;;;;;;;;;;5067900;28;20185;-55
2023/11/12 07:13:06;;;;;;;5.23;4.73;;;;;;;;;;5069214;28;20180;-55
2023/11/12 07:15:32;;;;;;;5.13;4.67;;;;;;;;;;5065112;28;20644;-55
2023/11/12 07:17:58;;;;;;;5.20;4.70;;;;;;;;;;5068824;28;20208;-54
2023/11/12 07:20:28;;;;;;;7.33;5.13;;;;;;;;;;5064850;28;20223;-54
2023/11/12 07:22:56;;;;;;;5.97;5.33;;;;;;;;;;5067680;28;20180;-53
2023/11/12 07:25:23;;;;;;;5.90;5.13;;;;;;;;;;5069978;28;20222;-54
2023/11/12 07:27:49;;;;;;;8.20;5.70;;;;;;;;;;5070113;28;20651;-54
2023/11/12 07:30:16;;;;;;;5.70;4.90;;;;;;;;;;5069736;28;20184;-53
2023/11/12 07:32:42;;;;;;;5.73;5.23;;;;;;;;;;5069760;28;20270;-54
2023/11/12 07:35:08;;;;;;;6.03;5.43;;;;;;;;;;5069053;28;20660;-53
2023/11/12 07:37:34;;;;;;;5.30;4.80;;;;;;;;;;5049473;28;20207;-54
2023/11/12 07:40:01;;;;;;;5.40;4.90;;;;;;;;;;5068311;28;20256;-54
2023/11/12 07:42:28;;;;;;;7.60;5.30;;;;;;;;;;5068101;28;20269;-53
2023/11/12 07:44:54;;;;;;;5.63;5.13;;;;;;;;;;5066258;28;20531;-54
2023/11/12 07:47:21;;;;;;;5.37;4.87;;;;;;;;;;5067424;28;20242;-54
2023/11/12 07:49:47;;;;;;;5.75;5.10;;;;;;;;;;5068230;28;20507;-53
2023/11/12 07:52:13;;;;;;;5.33;4.83;;;;;;;;;;5068453;28;20188;-55
2023/11/12 07:54:39;;;;;;;6.40;5.00;;;;;;;;;;5068225;28;20185;-54
2023/11/12 07:57:06;;;;;;;6.03;4.50;;;;;;;;;;5068099;28;20184;-54
2023/11/12 07:59:32;;;;;;;4.80;4.23;;;;;;;;;;5066405;28;20220;-54
2023/11/12 08:01:58;;;;;;;4.70;4.30;;;;;;;;;;5067403;28;20184;-54
2023/11/12 08:04:24;;;;;;;4.93;4.53;;;;;;;;;;5066952;28;20180;-54
2023/11/12 08:06:50;;;;;;;5.27;4.77;;;;;;;;;;5068395;28;20287;-54
2023/11/12 08:09:16;;;;;;;5.57;4.90;;;;;;;;;;5068143;28;20329;-54
2023/11/12 08:11:42;;;;;;;4.93;4.33;;;;;;;;;;5067695;28;20713;-54
2023/11/12 08:14:11;;;;;;;5.00;4.60;;;;;;;;;;5068474;28;20275;-54
2023/11/12 08:16:38;;;;;;;5.40;4.63;;;;;;;;;;5064569;28;20180;-54
2023/11/12 08:19:04;;;;;;;5.50;4.47;;;;;;;;;;5069067;28;20210;-54
2023/11/12 08:21:30;;;;;;;4.90;4.27;;;;;;;;;;5065840;28;20222;-54
2023/11/12 08:23:58;;;;;;;4.53;4.13;;;;;;;;;;5066561;28;20545;-54
2023/11/12 08:26:27;;;;;;;5.80;4.50;;;;;;;;;;5068433;28;20184;-56
2023/11/12 08:28:56;;;;;;;5.27;4.13;;;;;;;;;;5065966;28;20595;-56
2023/11/12 08:31:23;;;;;;;4.70;4.23;;;;;;;;;;5065595;28;20498;-56
2023/11/12 08:33:49;;;;;;;6.63;4.57;;;;;;;;;;5066151;28;20263;-55
2023/11/12 08:36:15;;;;;;;4.47;4.07;;;;;;;;;;5067470;28;20500;-56
2023/11/12 08:38:41;;;;;;;5.23;4.30;;;;;;;;;;5064557;28;20709;-55
2023/11/12 08:41:08;;;;;;;4.90;4.47;;;;;;;;;;5067325;28;20172;-56
2023/11/12 08:43:34;;;;;;;5.90;5.10;;;;;;;;;;5066671;28;20181;-56
2023/11/12 08:46:00;;;;;;;4.43;3.57;;;;;;;;;;5064741;28;20655;-56
2023/11/12 08:48:31;;;;;;;4.50;3.70;;;;;;;;;;5064709;28;20266;-56
2023/11/12 08:50:58;;;;;;;4.30;3.90;;;;;;;;;;5066152;28;20184;-56
2023/11/12 08:53:24;;;;;;;4.97;4.07;;;;;;;;;;5069774;28;20519;-56
2023/11/12 08:55:50;;;;;;;5.03;4.40;;;;;;;;;;5070109;28;20168;-56
2023/11/12 08:58:16;;;;;;;5.00;4.20;;;;;;;;;;5068373;28;20611;-56
2023/11/12 09:00:42;;;;;;;5.53;4.33;;;;;;;;;;5068941;28;20184;-56
2023/11/12 09:03:08;;;;;;;8.23;4.60;;;;;;;;;;5070076;28;20634;-56
2023/11/12 09:05:35;;;;;;;6.90;4.60;;;;;;;;;;5070405;28;20668;-61
2023/11/12 09:08:01;;;;;;;5.00;3.93;;;;;;;;;;5069478;28;20495;-55
2023/11/12 09:10:27;;;;;;;4.87;4.13;;;;;;;;;;5069307;28;20223;-55
2023/11/12 09:12:53;;;;;;;4.47;4.00;;;;;;;;;;5069795;28;20184;-56
2023/11/12 09:15:20;;;;;;;6.13;4.23;;;;;;;;;;5067864;28;20298;-56
2023/11/12 09:17:46;;;;;;;6.67;4.77;;;;;;;;;;5069202;28;20542;-56
2023/11/12 09:20:15;;;;;;;5.17;4.67;;;;;;;;;;5067594;28;20208;-57
2023/11/12 09:22:41;;;;;;;5.43;4.03;;;;;;;;;;5067928;28;20180;-56
2023/11/12 09:25:07;;;;;;;4.83;4.33;;;;;;;;;;5067768;28;20184;-56
2023/11/12 09:27:33;;;;;;;4.77;4.37;;;;;;;;;;5069252;28;20188;-56
2023/11/12 09:30:01;;;;;;;4.60;4.20;;;;;;;;;;5069582;28;20185;-56
2023/11/12 09:32:27;;;;;;;6.33;4.53;;;;;;;;;;5069206;28;20695;-56
2023/11/12 09:34:53;;;;;;;7.33;3.97;;;;;;;;;;5068625;28;20597;-56
2023/11/12 09:37:19;;;;;;;6.43;3.93;;;;;;;;;;5069717;28;20184;-55
2023/11/12 09:39:45;;;;;;;5.17;4.13;;;;;;;;;;5069098;28;20707;-55
2023/11/12 09:42:13;;;;;;;4.50;3.90;;;;;;;;;;5069860;28;20667;-54
2023/11/12 09:44:42;;;;;;;5.27;4.07;;;;;;;;;;5068319;28;20249;-54
2023/11/12 09:47:16;;;;;;;4.50;4.10;;;;;;;;;;5069083;28;20196;-54
2023/11/12 09:49:42;;;;;;;5.40;3.73;;;;;;;;;;5057294;28;20188;-55
2023/11/12 09:52:08;;;;;;;4.67;4.20;;;;;;;;;;5068876;28;20184;-54
2023/11/12 09:54:36;;;;;;;4.97;3.73;;;;;;;;;;5068252;28;20632;-54
2023/11/12 09:57:03;;;;;;;5.82;5.13;;;;;;;;;;5067939;28;20430;-54
2023/11/12 09:59:31;;;;;;;4.70;3.90;;;;;;;;;;5069485;28;20204;-54
2023/11/12 10:01:57;;;;;;;4.33;3.57;;;;;;;;;;5072992;28;20542;-54
2023/11/12 10:04:23;;;;;;;3.60;3.30;;;;;;;;;;5072991;28;20200;-54
2023/11/12 10:06:50;;;;;;;5.57;4.10;;;;;;;;;;5072648;28;20245;-54
2023/11/12 10:09:26;;;;;;;4.70;4.20;;;;;;;;;;5067824;28;20539;-54
2023/11/12 10:11:53;;;;;;;4.17;3.57;;;;;;;;;;5072555;28;20195;-54
2023/11/12 10:14:23;;;;;;;5.33;3.70;;;;;;;;;;5069468;28;20197;-54
2023/11/12 10:16:49;;;;;;;4.07;3.60;;;;;;;;;;5072294;28;20176;-54
2023/11/12 10:19:15;;;;;;;5.37;4.10;;;;;;;;;;5072392;28;20211;-55
2023/11/12 10:21:58;;;;;;;4.00;3.30;;;;;;;;;;5072003;28;20177;-54
2023/11/12 10:24:24;;;;;;;4.63;3.67;;;;;;;;;;5071063;28;20195;-54
2023/11/12 10:26:53;;;;;;;4.20;3.80;;;;;;;;;;5070613;28;20696;-54
2023/11/12 10:29:23;;;;;;;4.37;3.97;;;;;;;;;;5066597;28;20192;-54
2023/11/12 10:31:49;;;;;;;4.23;3.87;;;;;;;;;;5068379;28;20228;-54
2023/11/12 10:34:19;;;;;;;5.53;3.77;;;;;;;;;;5071488;28;20606;-54
2023/11/12 10:37:03;;;;;;;4.57;4.00;;;;;;;;;;5072946;28;20187;-54
2023/11/12 10:39:33;;;;;;;4.00;3.70;;;;;;;;;;5072680;28;20214;-54
2023/11/12 10:42:00;;;;;;;4.20;3.80;;;;;;;;;;5071451;28;20217;-55
2023/11/12 10:44:27;;;;;;;4.97;4.10;;;;;;;;;;5070987;28;20188;-54
2023/11/12 10:46:53;;;;;;;3.90;3.50;;;;;;;;;;5071080;28;20172;-54
2023/11/12 10:49:20;;;;;;;5.22;4.43;;;;;;;;;;5070266;28;20414;-54
2023/11/12 10:51:48;;;;;;;3.80;3.50;;;;;;;;;;5071343;28;20193;-55
2023/11/12 10:54:14;;;;;;;3.37;2.93;;;;;;;;;;5072525;28;20283;-55
2023/11/12 10:56:40;;;;;;;5.03;4.30;;;;;;;;;;5053672;28;20698;-55
2023/11/12 10:59:08;;;;;;;5.53;3.97;;;;;;;;;;5071681;28;20708;-55
2023/11/12 11:01:34;;;;;;;4.10;3.70;;;;;;;;;;5072681;28;20549;-54
2023/11/12 11:04:01;;;;;;;6.73;4.27;;;;;;;;;;5071908;28;20173;-54
2023/11/12 11:06:27;;;;;;;4.20;3.37;;;;;;;;;;5071936;28;20188;-54
2023/11/12 11:08:53;;;;;;;3.47;3.17;;;;;;;;;;5071678;28;20555;-54
2023/11/12 11:11:21;;;;;;;3.90;3.03;;;;;;;;;;5071185;28;20522;-54
2023/11/12 11:13:48;;;;;;;3.50;2.77;;;;;;;;;;5072163;28;20245;-54
2023/11/12 11:16:34;;;;;;;3.40;3.03;;;;;;;;;;5070887;28;20655;-54
2023/11/12 11:19:00;;;;;;;2.60;2.40;;;;;;;;;;5069892;28;20257;-55
2023/11/12 11:21:26;;;;;;;3.03;2.70;;;;;;;;;;5053332;28;20188;-54
2023/11/12 11:23:53;;;;;;;2.97;2.77;;;;;;;;;;5071714;28;20183;-54
2023/11/12 11:26:26;;;;;;;3.53;2.97;;;;;;;;;;5071271;28;20183;-55
2023/11/12 11:29:13;;;;;;;4.43;2.87;;;;;;;;;;5071248;28;20177;-55
2023/11/12 11:31:41;;;;;;;2.67;2.30;;;;;;;;;;5068467;28;20254;-54
2023/11/12 11:34:08;;;;;;;6.60;2.30;;;;;;;;;;5071784;28;20279;-55
2023/11/12 11:36:34;;;;;;;2.90;2.60;;;;;;;;;;5070932;28;20279;-55
2023/11/12 11:39:08;;;;;;;4.20;2.73;;;;;;;;;;5069977;28;20277;-55
2023/11/12 11:41:46;;;;;;;3.40;2.60;;;;;;;;;;5070523;28;20176;-55
2023/11/12 11:44:37;;;;;;;3.87;2.57;;;;;;;;;;5069066;28;20172;-55
2023/11/12 11:47:07;;;;;;;2.80;2.60;;;;;;;;;;5070264;28;20191;-55
2023/11/12 11:49:34;;;;;;;6.47;2.50;;;;;;;;;;5070124;28;20331;-55
2023/11/12 11:52:00;;;;;;;4.30;2.60;;;;;;;;;;5070460;28;20761;-56
2023/11/12 11:54:26;;;;;;;4.90;2.73;;;;;;;;;;5070254;28;20233;-55
2023/11/12 11:57:00;;;;;;;2.93;2.03;;;;;;;;;;5050641;28;20189;-55
2023/11/12 11:59:26;;;;;;;3.23;2.57;;;;;;;;;;5059093;28;20208;-55
2023/11/12 12:01:59;;;;;;;4.00;2.17;;;;;;;;;;5069891;28;20230;-56
2023/11/12 12:04:25;;;;;;;6.77;1.93;;;;;;;;;;5069319;28;20173;-55
2023/11/12 12:06:51;;;;;;;6.50;2.43;;;;;;;;;;5071932;28;20188;-55
2023/11/12 12:09:18;;;;;;;3.47;2.60;;;;;;;;;;5067242;28;20658;-55
2023/11/12 12:11:46;;;;;;;2.37;2.13;;;;;;;;;;5069196;28;20188;-55
2023/11/12 12:14:12;;;;;;;2.93;2.00;;;;;;;;;;5070183;28;20655;-55
2023/11/12 12:16:42;;;;;;;17.13;3.27;;;;;;;;;;5071315;28;20671;-56
2023/11/12 12:19:08;;;;;;;3.63;3.03;;;;;;;;;;5068411;28;20208;-55
2023/11/12 12:21:36;;;;;;;3.27;2.80;;;;;;;;;;5068642;28;20237;-56
2023/11/12 12:24:03;;;;;;;5.50;2.97;;;;;;;;;;5067461;28;20184;-56
2023/11/12 12:26:29;;;;;;;4.60;3.10;;;;;;;;;;5063548;28;20184;-55
2023/11/12 12:28:56;;;;;;;3.90;3.10;;;;;;;;;;5066230;28;20184;-55
2023/11/12 12:31:27;;;;;;;6.47;3.20;;;;;;;;;;5063644;28;20228;-55
2023/11/12 12:34:04;;;;;;;4.43;3.20;;;;;;;;;;5058628;28;20192;-55
2023/11/12 12:36:30;;;;;;;5.63;3.57;;;;;;;;;;5051911;28;20172;-56
2023/11/12 12:38:57;;;;;;;4.70;3.77;;;;;;;;;;5056326;28;20219;-56
2023/11/12 12:41:24;;;;;;;4.43;4.03;;;;;;;;;;5065401;28;20184;-55
2023/11/12 12:43:51;;;;;;;4.97;3.83;;;;;;;;;;5068635;28;20192;-56
2023/11/12 12:46:17;;;;;;;6.23;3.53;;;;;;;;;;5067164;28;20208;-55
2023/11/12 12:48:52;;;;;;;4.80;3.63;;;;;;;;;;5070664;28;20183;-55
2023/11/12 12:51:19;;;;;;;5.33;4.47;;;;;;;;;;5065535;28;20271;-56
2023/11/12 12:53:45;;;;;;;5.50;4.90;;;;;;;;;;5066330;28;20226;-56
2023/11/12 12:56:13;;;;;;;7.70;5.90;;;;;;;;;;5069430;28;20181;-56
2023/11/12 12:58:40;;;;;;;6.60;4.73;;;;;;;;;;5062156;28;20208;-56
2023/11/12 13:01:10;;;;;;;4.93;4.40;;;;;;;;;;5066559;28;20184;-55
2023/11/12 13:03:39;;;;;;;4.37;3.90;;;;;;;;;;5067982;28;20275;-56
2023/11/12 13:06:08;;;;;;;6.67;3.80;;;;;;;;;;5065474;28;20189;-55
2023/11/12 13:08:34;;;;;;;5.70;4.47;;;;;;;;;;5065555;28;20644;-56
2023/11/12 13:11:00;;;;;;;5.07;4.43;;;;;;;;;;5068665;28;20551;-56
2023/11/12 13:13:30;;;;;;;4.53;4.13;;;;;;;;;;5067390;28;20196;-56
2023/11/12 13:15:57;;;;;;;4.40;4.00;;;;;;;;;;5065816;28;20199;-55
2023/11/12 13:18:23;;;;;;;7.03;4.40;;;;;;;;;;5065388;28;20204;-56
2023/11/12 13:20:55;;;;;;;6.57;4.70;;;;;;;;;;5066859;28;20544;-55
2023/11/12 13:23:22;;;;;;;4.50;4.10;;;;;;;;;;5068607;28;20172;-56
2023/11/12 13:25:49;;;;;;;4.73;3.70;;;;;;;;;;5065961;28;20185;-56
2023/11/12 13:28:19;;;;;;;4.97;3.90;;;;;;;;;;5063932;28;20180;-55
2023/11/12 13:30:46;;;;;;;3.90;3.60;;;;;;;;;;5066294;28;20180;-55
2023/11/12 13:33:13;;;;;;;5.60;4.70;;;;;;;;;;5068427;28;20180;-56
2023/11/12 13:35:39;;;;;;;5.10;3.80;;;;;;;;;;5065646;28;20188;-56
2023/11/12 13:38:05;;;;;;;4.50;4.10;;;;;;;;;;5066216;28;20722;-56
2023/11/12 13:40:33;;;;;;;5.80;4.13;;;;;;;;;;5064045;28;20182;-56
2023/11/12 13:43:00;;;;;;;6.27;4.87;;;;;;;;;;5068500;28;20578;-56
2023/11/12 13:45:27;;;;;;;4.47;3.90;;;;;;;;;;5063699;28;20184;-56
2023/11/12 13:47:54;;;;;;;6.80;4.20;;;;;;;;;;5065018;28;20191;-56
2023/11/12 13:50:24;;;;;;;6.63;4.43;;;;;;;;;;5058168;28;20175;-56
2023/11/12 13:52:57;;;;;;;4.73;4.20;;;;;;;;;;5066741;28;20215;-56
2023/11/12 13:55:25;;;;;;;5.43;4.33;;;;;;;;;;5066144;28;20180;-56
2023/11/12 13:57:52;;;;;;;5.07;4.67;;;;;;;;;;5067961;28;20700;-56
2023/11/12 14:00:19;;;;;;;7.23;4.97;;;;;;;;;;5066952;28;20181;-56
2023/11/12 14:02:45;;;;;;;7.03;5.00;;;;;;;;;;5064986;28;20311;-56
2023/11/12 14:05:11;;;;;;;6.30;5.00;;;;;;;;;;5064914;28;20180;-56
2023/11/12 14:07:41;;;;;;;4.87;4.47;;;;;;;;;;5067913;28;20197;-56
2023/11/12 14:10:09;;;;;;;8.70;5.43;;;;;;;;;;5067153;28;20189;-56
2023/11/12 14:12:37;;;;;;;5.90;5.30;;;;;;;;;;5056254;28;20657;-56
2023/11/12 14:15:05;;;;;;;5.40;4.87;;;;;;;;;;5049669;28;20545;-56
2023/11/12 14:17:33;;;;;;;5.53;5.00;;;;;;;;;;5049956;28;20328;-55
2023/11/12 14:19:59;;;;;;;7.40;4.73;;;;;;;;;;5064808;28;20272;-56
2023/11/12 14:22:27;;;;;;;5.33;4.70;;;;;;;;;;5064629;28;20187;-55
2023/11/12 14:24:53;;;;;;;5.93;4.63;;;;;;;;;;5064772;28;20646;-55
2023/11/12 14:27:20;;;;;;;5.40;4.90;;;;;;;;;;5066191;28;20173;-55
2023/11/12 14:29:49;;;;;;;6.53;4.13;;;;;;;;;;5064665;28;20180;-55
2023/11/12 14:32:16;;;;;;;5.07;4.50;;;;;;;;;;5064862;28;20699;-55
2023/11/12 14:34:42;;;;;;;5.70;4.70;;;;;;;;;;5063684;28;20220;-55
2023/11/12 14:37:08;;;;;;;6.40;4.20;;;;;;;;;;5065188;28;20188;-55
2023/11/12 14:39:34;;;;;;;5.60;4.27;;;;;;;;;;5070745;28;20261;-55
2023/11/12 14:42:03;;;;;;;5.40;4.23;;;;;;;;;;5063528;28;21097;-54